Terminal Aerodrome Forecast
Issued by NWS Cleveland, OH

Home | Current Version | Previous Version | Graphics & Text | Print | Product List | Glossary On
Versions: 1 2 3 4 5 6 7 8 9 10 11 12 13 14
276
FTUS41 KCLE 231121
TAFCAK
TAF
KCAK 231121Z 2312/2412 14006KT P6SM SCT250
     FM231600 13008KT P6SM BKN250
     FM232300 16007KT P6SM OVC100
     FM240600 18009KT P6SM OVC035
     FM240800 21010G15KT 6SM -SHRA BR OVC025=

USA.gov is the U.S. government's official web portal to all federal, state and local government web resources and services.